createdAt,value
2023-05-08T00:00:09.378Z,101276.67
2023-05-08T00:02:41.141Z,101283.86
2023-05-08T00:05:09.814Z,101288.48
2023-05-08T00:07:39.102Z,101287.28
2023-05-08T00:10:10.361Z,101291.39
2023-05-08T00:12:39.826Z,101291.05
2023-05-08T00:15:10.355Z,101285.41
2023-05-08T00:17:39.041Z,101297.38
2023-05-08T00:20:09.506Z,101291.73
2023-05-08T00:22:38.475Z,101292.25
2023-05-08T00:25:08.829Z,101286.61
2023-05-08T00:27:38.426Z,101292.42
2023-05-08T00:30:08.966Z,101291.73
2023-05-08T00:32:38.649Z,101289.69
2023-05-08T00:35:08.886Z,101295.84
2023-05-08T00:37:39.391Z,101289.34
2023-05-08T00:40:11.193Z,101290.03
2023-05-08T00:42:41.206Z,101295.67
2023-05-08T00:45:10.914Z,101290.71
2023-05-08T00:47:40.886Z,101292.56
2023-05-08T00:50:11.092Z,101286.91
2023-05-08T00:52:40.292Z,101291.36
2023-05-08T00:55:09.850Z,101286.91
2023-05-08T00:57:39.341Z,101289.83
2023-05-08T01:00:09.729Z,101299.41
2023-05-08T01:02:38.721Z,101303.84
2023-05-08T01:05:08.758Z,101307.27
2023-05-08T01:07:38.717Z,101309.83
2023-05-08T01:10:10.190Z,101309.49
2023-05-08T01:13:01.143Z,101303.85
2023-05-08T01:15:37.507Z,101312.58
2023-05-08T01:18:23.773Z,101307.27
2023-05-08T01:21:14.820Z,101310.52
2023-05-08T01:24:17.762Z,101312.05
2023-05-08T01:27:17.264Z,101312.73
2023-05-08T01:30:20.597Z,101311.53
2023-05-08T01:33:13.800Z,101313.42
2023-05-08T01:35:53.042Z,101314.27
2023-05-08T01:38:34.088Z,101316.32
2023-05-08T01:41:11.522Z,101315.64
2023-05-08T01:44:01.668Z,101325.55
2023-05-08T01:46:33.761Z,101330.69
2023-05-08T01:49:14.720Z,101326.91
2023-05-08T01:51:50.424Z,101326.23
2023-05-08T01:54:22.504Z,101328.28
2023-05-08T01:56:55.470Z,101326.91
2023-05-08T01:59:25.113Z,101324.52
2023-05-08T02:01:57.004Z,101333.58
2023-05-08T02:04:26.477Z,101334.09
2023-05-08T02:06:55.734Z,101331.02
2023-05-08T02:09:24.704Z,101343.49
2023-05-08T02:11:53.250Z,101340.23
2023-05-08T02:14:21.994Z,101333.05
2023-05-08T02:16:51.555Z,101335.44
2023-05-08T02:19:20.614Z,101341.58
2023-05-08T02:21:50.277Z,101340.55
2023-05-08T02:24:19.046Z,101351.83
2023-05-08T02:26:47.723Z,101354.06
2023-05-08T02:29:16.509Z,101350.80
2023-05-08T02:31:45.628Z,101349.59
2023-05-08T02:34:14.366Z,101355.58
2023-05-08T02:36:45.288Z,101353.86
2023-05-08T02:39:14.427Z,101353.19
2023-05-08T02:41:43.277Z,101362.75
2023-05-08T02:44:12.002Z,101359.66
2023-05-08T02:46:54.298Z,101366.67
2023-05-08T02:50:02.792Z,101365.13
2023-05-08T02:52:37.729Z,101368.37
2023-05-08T02:55:33.485Z,101369.90
2023-05-08T02:58:19.764Z,101368.53
2023-05-08T03:01:04.761Z,101364.78
2023-05-08T03:03:39.508Z,101373.33
2023-05-08T03:06:16.691Z,101375.20
2023-05-08T03:08:45.305Z,101378.95
2023-05-08T03:11:19.775Z,101390.59
2023-05-08T03:13:48.437Z,101391.45
2023-05-08T03:16:22.056Z,101401.02
2023-05-08T03:18:58.325Z,101404.08
2023-05-08T03:21:29.397Z,101393.81
2023-05-08T03:24:00.842Z,101400.66
2023-05-08T03:26:32.144Z,101402.37
2023-05-08T03:29:00.966Z,101405.09
2023-05-08T03:31:31.625Z,101402.71
2023-05-08T03:34:00.478Z,101407.48
2023-05-08T03:36:29.096Z,101412.80
2023-05-08T03:39:00.092Z,101417.75
2023-05-08T03:41:28.866Z,101419.81
2023-05-08T03:43:57.494Z,101421.51
2023-05-08T03:46:26.543Z,101429.20
2023-05-08T03:48:55.350Z,101431.27
2023-05-08T03:51:24.867Z,101429.03
2023-05-08T03:53:55.272Z,101431.42
2023-05-08T03:56:26.439Z,101436.20
2023-05-08T03:59:10.548Z,101438.77
2023-05-08T04:01:41.018Z,101436.73
2023-05-08T04:04:25.943Z,101440.32
2023-05-08T04:07:10.308Z,101436.91
2023-05-08T04:10:07.975Z,101441.70
2023-05-08T04:12:42.561Z,101445.99
2023-05-08T04:15:21.040Z,101452.34
2023-05-08T04:17:59.394Z,101452.36
2023-05-08T04:20:28.861Z,101456.99
2023-05-08T04:22:57.981Z,101449.98
2023-05-08T04:25:28.781Z,101456.66
2023-05-08T04:27:58.511Z,101456.33
2023-05-08T04:30:28.905Z,101455.82
2023-05-08T04:32:57.911Z,101461.30
2023-05-08T04:35:28.290Z,101464.37
2023-05-08T04:37:58.743Z,101467.11
2023-05-08T04:40:28.398Z,101467.29
2023-05-08T04:42:57.164Z,101466.11
2023-05-08T04:45:29.017Z,101467.48
2023-05-08T04:47:58.424Z,101465.79
2023-05-08T04:50:27.003Z,101468.89
2023-05-08T04:52:55.778Z,101469.76
2023-05-08T04:55:25.097Z,101465.50
2023-05-08T04:57:53.976Z,101467.77
2023-05-08T05:00:23.431Z,101471.03
2023-05-08T05:02:52.408Z,101469.67
2023-05-08T05:05:23.925Z,101473.10
2023-05-08T05:07:53.567Z,101475.50
2023-05-08T05:10:22.214Z,101462.68
2023-05-08T05:12:52.271Z,101477.41
2023-05-08T05:15:22.177Z,101470.55
2023-05-08T05:17:51.710Z,101466.80
2023-05-08T05:20:21.692Z,101468.00
2023-05-08T05:22:50.192Z,101463.20
2023-05-08T05:25:19.226Z,101466.30
2023-05-08T05:27:47.930Z,101466.30
2023-05-08T05:30:16.803Z,101471.44
2023-05-08T05:32:46.534Z,101472.81
2023-05-08T05:35:15.913Z,101476.96
2023-05-08T05:37:44.963Z,101472.34
2023-05-08T05:40:14.038Z,101473.03
2023-05-08T05:42:43.284Z,101478.34
2023-05-08T05:45:13.192Z,101480.44
2023-05-08T05:47:50.067Z,101474.95
2023-05-08T05:50:22.327Z,101479.07
2023-05-08T05:52:51.145Z,101475.64
2023-05-08T05:55:20.506Z,101482.67
2023-05-08T05:57:49.190Z,101475.30
2023-05-08T06:00:19.270Z,101478.03
2023-05-08T06:02:49.964Z,101473.06
2023-05-08T06:05:19.648Z,101474.44
2023-05-08T06:07:48.420Z,101468.43
2023-05-08T06:10:17.689Z,101469.45
2023-05-08T06:12:47.280Z,101463.61
2023-05-08T06:15:18.465Z,101468.41
2023-05-08T06:17:48.838Z,101465.51
2023-05-08T06:20:18.699Z,101467.54
2023-05-08T06:22:47.499Z,101480.03
2023-05-08T06:25:16.803Z,101478.45
2023-05-08T06:27:46.364Z,101462.83
2023-05-08T06:30:15.898Z,101468.98
2023-05-08T06:32:46.430Z,101466.00
2023-05-08T06:35:19.521Z,101464.44
2023-05-08T06:37:48.964Z,101460.54
2023-05-08T06:40:17.794Z,101465.89
2023-05-08T06:42:47.010Z,101461.50
2023-05-08T06:45:16.461Z,101463.34
2023-05-08T06:47:45.347Z,101455.23
2023-05-08T06:50:14.372Z,101458.25
2023-05-08T06:52:43.762Z,101454.20
2023-05-08T06:55:12.582Z,101458.02
2023-05-08T06:57:41.800Z,101462.30
2023-05-08T07:00:12.114Z,101461.36
2023-05-08T07:02:40.963Z,101470.17
2023-05-08T07:05:10.498Z,101464.01
2023-05-08T07:07:39.101Z,101467.59
2023-05-08T07:10:09.698Z,101458.36
2023-05-08T07:12:40.917Z,101461.08
2023-05-08T07:15:24.797Z,101465.06
2023-05-08T07:17:42.487Z,101460.55
2023-05-08T07:20:11.815Z,101466.30
2023-05-08T07:22:41.185Z,101467.11
2023-05-08T07:25:10.936Z,101464.31
2023-05-08T07:27:40.294Z,101461.55
2023-05-08T07:30:10.950Z,101461.52
2023-05-08T07:32:40.919Z,101458.88
2023-05-08T07:35:11.741Z,101462.27
2023-05-08T07:37:40.739Z,101457.88
2023-05-08T07:40:11.004Z,101454.51
2023-05-08T07:42:44.067Z,101464.39
2023-05-08T07:45:13.460Z,101455.14
2023-05-08T07:47:55.443Z,101465.44
2023-05-08T07:50:25.227Z,101463.13
2023-05-08T07:52:54.061Z,101464.69
2023-05-08T07:55:23.297Z,101460.89
2023-05-08T07:57:52.214Z,101443.70
2023-05-08T08:00:21.617Z,101456.05
2023-05-08T08:02:50.527Z,101464.16
2023-05-08T08:05:19.716Z,101452.90
2023-05-08T08:07:48.653Z,101461.66
2023-05-08T08:10:17.558Z,101452.48
2023-05-08T08:12:47.757Z,101453.66
2023-05-08T08:15:18.530Z,101455.69
2023-05-08T08:17:48.576Z,101446.61
2023-05-08T08:20:18.232Z,101457.27
2023-05-08T08:22:46.629Z,101465.00
2023-05-08T08:25:15.286Z,101462.73
2023-05-08T08:27:44.034Z,101457.88
2023-05-08T08:30:18.033Z,101448.95
2023-05-08T08:32:45.029Z,101455.07
2023-05-08T08:35:14.189Z,101456.14
2023-05-08T08:37:43.043Z,101461.92
2023-05-08T08:40:12.574Z,101459.23
2023-05-08T08:42:41.467Z,101450.50
2023-05-08T08:45:11.439Z,101446.19
2023-05-08T08:47:43.917Z,101446.98
2023-05-08T08:50:14.814Z,101446.35
2023-05-08T08:53:13.772Z,101445.42
2023-05-08T08:55:46.100Z,101448.33
2023-05-08T08:58:25.811Z,101444.80
2023-05-08T09:00:56.130Z,101437.46
2023-05-08T09:03:25.626Z,101445.02
2023-05-08T09:05:55.168Z,101437.02
2023-05-08T09:08:26.088Z,101447.69
2023-05-08T09:10:57.799Z,101446.72
2023-05-08T09:13:26.938Z,101444.88
2023-05-08T09:15:58.159Z,101435.40
2023-05-08T09:18:28.747Z,101437.52
2023-05-08T09:20:59.724Z,101434.97
2023-05-08T09:23:28.948Z,101449.09
2023-05-08T09:25:57.926Z,101446.87
2023-05-08T09:28:26.733Z,101451.40
2023-05-08T09:30:59.502Z,101448.29
2023-05-08T09:33:29.019Z,101447.41
2023-05-08T09:35:58.194Z,101448.59
2023-05-08T09:38:41.702Z,101444.65
2023-05-08T09:41:15.852Z,101440.50
2023-05-08T09:43:46.173Z,101436.03
2023-05-08T09:46:23.212Z,101438.80
2023-05-08T09:48:53.297Z,101428.50
2023-05-08T09:51:23.846Z,101433.09
2023-05-08T09:53:54.825Z,101439.56
2023-05-08T09:56:36.045Z,101433.69
2023-05-08T09:59:06.229Z,101439.92
2023-05-08T10:01:36.962Z,101430.83
2023-05-08T10:04:06.534Z,101429.00
2023-05-08T10:06:36.201Z,101430.37
2023-05-08T10:09:14.185Z,101427.61
2023-05-08T10:11:53.256Z,101424.61
2023-05-08T10:14:24.013Z,101419.50
2023-05-08T10:16:53.309Z,101418.85
2023-05-08T10:19:24.107Z,101416.17
2023-05-08T10:21:53.922Z,101427.50
2023-05-08T10:24:28.129Z,101425.51
2023-05-08T10:27:30.285Z,101422.09
2023-05-08T10:30:03.968Z,101420.88
2023-05-08T10:32:41.866Z,101411.89
2023-05-08T10:35:11.483Z,101414.66
2023-05-08T10:37:41.893Z,101417.73
2023-05-08T10:40:11.827Z,101412.14
2023-05-08T10:42:40.925Z,101416.78
2023-05-08T10:45:10.437Z,101408.62
2023-05-08T10:48:15.411Z,101410.48
2023-05-08T10:51:11.536Z,101414.75
2023-05-08T10:54:16.101Z,101406.67
2023-05-08T10:56:45.320Z,101409.96
2023-05-08T10:59:20.262Z,101425.80
2023-05-08T11:01:49.986Z,101431.19
2023-05-08T11:04:22.852Z,101422.38
2023-05-08T11:06:53.585Z,101429.75
2023-05-08T11:09:30.667Z,101428.12
2023-05-08T11:12:29.572Z,101426.42
2023-05-08T11:15:09.184Z,101429.43
2023-05-08T11:17:41.583Z,101431.13
2023-05-08T11:20:11.878Z,101426.99
2023-05-08T11:22:47.224Z,101428.42
2023-05-08T11:25:16.018Z,101426.44
2023-05-08T11:27:53.196Z,101416.58
2023-05-08T11:30:36.479Z,101426.41
2023-05-08T11:33:11.264Z,101421.61
2023-05-08T11:35:53.632Z,101418.12
2023-05-08T11:38:35.614Z,101426.00
2023-05-08T11:41:24.136Z,101415.24
2023-05-08T11:44:13.175Z,101421.57
2023-05-08T11:46:58.722Z,101417.31
2023-05-08T11:49:29.990Z,101417.23
2023-05-08T11:51:59.557Z,101424.78
2023-05-08T11:54:30.551Z,101425.67
2023-05-08T11:57:01.820Z,101417.66
2023-05-08T11:59:37.246Z,101417.08
2023-05-08T12:02:09.031Z,101418.46
2023-05-08T12:04:48.175Z,101411.56
2023-05-08T12:07:17.197Z,101407.35
2023-05-08T12:09:47.238Z,101410.36
2023-05-08T12:12:16.799Z,101408.70
2023-05-08T12:14:51.292Z,101405.95
2023-05-08T12:17:19.981Z,101408.98
2023-05-08T12:19:49.407Z,101413.52
2023-05-08T12:22:18.177Z,101410.44
2023-05-08T12:24:47.365Z,101407.60
2023-05-08T12:27:17.962Z,101412.19
2023-05-08T12:29:46.594Z,101408.09
2023-05-08T12:32:15.400Z,101405.82
2023-05-08T12:34:43.916Z,101408.70
2023-05-08T12:37:12.534Z,101409.87
2023-05-08T12:39:45.636Z,101409.03
2023-05-08T12:42:15.309Z,101403.70
2023-05-08T12:44:51.897Z,101409.76
2023-05-08T12:47:22.117Z,101402.41
2023-05-08T12:49:50.873Z,101403.91
2023-05-08T12:52:20.148Z,101403.70
2023-05-08T12:54:48.984Z,101396.48
2023-05-08T12:57:19.318Z,101394.45
2023-05-08T12:59:48.776Z,101399.13
2023-05-08T13:02:21.760Z,101400.83
2023-05-08T13:04:55.725Z,101402.33
2023-05-08T13:07:24.398Z,101397.91
2023-05-08T13:10:01.973Z,101395.67
2023-05-08T13:12:31.619Z,101396.28
2023-05-08T13:15:00.744Z,101392.59
2023-05-08T13:17:29.604Z,101397.94
2023-05-08T13:19:58.209Z,101385.08
2023-05-08T13:22:27.114Z,101391.45
2023-05-08T13:24:55.772Z,101392.10
2023-05-08T13:27:26.565Z,101390.72
2023-05-08T13:29:55.049Z,101396.97
2023-05-08T13:32:23.526Z,101398.14
2023-05-08T13:34:54.127Z,101396.69
2023-05-08T13:37:23.450Z,101388.94
2023-05-08T13:39:52.019Z,101399.85
2023-05-08T13:42:20.586Z,101403.73
2023-05-08T13:44:49.214Z,101398.38
2023-05-08T13:47:17.739Z,101393.20
2023-05-08T13:49:47.278Z,101399.78
2023-05-08T13:52:17.289Z,101389.14
2023-05-08T13:54:45.799Z,101397.09
2023-05-08T13:57:14.296Z,101395.26
2023-05-08T13:59:42.776Z,101389.09
2023-05-08T14:02:14.578Z,101388.23
2023-05-08T14:04:44.094Z,101391.64
2023-05-08T14:07:13.018Z,101399.84
2023-05-08T14:09:41.568Z,101396.44
2023-05-08T14:12:10.419Z,101395.40
2023-05-08T14:14:39.389Z,101395.31
2023-05-08T14:17:11.245Z,101400.77
2023-05-08T14:19:40.040Z,101401.98
2023-05-08T14:22:09.082Z,101390.30
2023-05-08T14:24:38.269Z,101391.22
2023-05-08T14:27:07.410Z,101398.11
2023-05-08T14:29:36.310Z,101395.94
2023-05-08T14:32:06.354Z,101399.64
2023-05-08T14:34:34.695Z,101398.79
2023-05-08T14:37:03.857Z,101406.86
2023-05-08T14:39:32.813Z,101409.02
2023-05-08T14:42:21.354Z,101406.63
2023-05-08T14:44:33.557Z,101400.39
2023-05-08T14:47:02.666Z,101396.25
2023-05-08T14:49:38.030Z,101393.50
2023-05-08T14:52:02.731Z,101390.61
2023-05-08T14:54:32.240Z,101401.48
2023-05-08T14:57:01.093Z,101389.07
2023-05-08T14:59:29.803Z,101395.44
2023-05-08T15:01:58.857Z,101396.81
2023-05-08T15:04:27.920Z,101394.91
2023-05-08T15:06:56.530Z,101401.80
2023-05-08T15:09:26.451Z,101383.23
2023-05-08T15:11:55.100Z,101402.08
2023-05-08T15:14:24.279Z,101396.63
2023-05-08T15:16:52.936Z,101394.11
2023-05-08T15:19:21.852Z,101392.92
2023-05-08T15:21:50.479Z,101394.17
2023-05-08T15:24:19.754Z,101396.08
2023-05-08T15:26:50.283Z,101396.60
2023-05-08T15:29:18.750Z,101398.83
2023-05-08T15:31:48.739Z,101398.30
2023-05-08T15:34:17.899Z,101400.54
2023-05-08T15:36:46.491Z,101405.92
2023-05-08T15:39:15.000Z,101404.87
2023-05-08T15:41:43.380Z,101399.88
2023-05-08T15:44:13.756Z,101403.69
2023-05-08T15:46:42.697Z,101397.52
2023-05-08T15:49:11.372Z,101401.52
2023-05-08T15:51:41.464Z,101402.77
2023-05-08T15:54:09.986Z,101396.08
2023-05-08T15:56:38.936Z,101396.27
2023-05-08T15:59:07.750Z,101400.08
2023-05-08T16:01:37.638Z,101406.11
2023-05-08T16:04:06.322Z,101400.80
2023-05-08T16:06:35.500Z,101404.80
2023-05-08T16:09:04.272Z,101404.34
2023-05-08T16:11:33.504Z,101402.63
2023-05-08T16:14:02.864Z,101409.39
2023-05-08T16:16:31.833Z,101402.23
2023-05-08T16:19:01.079Z,101402.95
2023-05-08T16:21:31.386Z,101404.00
2023-05-08T16:23:59.915Z,101412.59
2023-05-08T16:26:28.835Z,101408.33
2023-05-08T16:28:58.705Z,101404.26
2023-05-08T16:31:27.763Z,101413.43
2023-05-08T16:33:56.903Z,101410.34
2023-05-08T16:36:27.524Z,101412.45
2023-05-08T16:38:56.358Z,101411.12
2023-05-08T16:41:27.539Z,101412.55
2023-05-08T16:43:56.744Z,101407.59
2023-05-08T16:46:29.968Z,101417.81
2023-05-08T16:48:57.726Z,101417.88
2023-05-08T16:51:27.370Z,101418.78
2023-05-08T16:53:58.077Z,101425.52
2023-05-08T16:56:28.727Z,101421.58
2023-05-08T16:58:58.006Z,101431.60
2023-05-08T17:01:27.636Z,101430.94
2023-05-08T17:03:56.419Z,101431.19
2023-05-08T17:06:27.320Z,101433.33
2023-05-08T17:08:56.781Z,101439.25
2023-05-08T17:11:25.560Z,101442.05
2023-05-08T17:13:54.179Z,101443.44
2023-05-08T17:16:23.682Z,101455.83
2023-05-08T17:18:52.713Z,101460.85
2023-05-08T17:21:22.471Z,101455.91
2023-05-08T17:23:51.961Z,101465.07
2023-05-08T17:26:22.798Z,101463.87
2023-05-08T17:28:51.850Z,101461.99
2023-05-08T17:31:20.846Z,101467.02
2023-05-08T17:33:49.376Z,101463.27
2023-05-08T17:36:19.338Z,101472.41
2023-05-08T17:38:47.983Z,101471.55
2023-05-08T17:41:16.556Z,101473.34
2023-05-08T17:43:46.214Z,101483.38
2023-05-08T17:46:15.095Z,101479.99
2023-05-08T17:48:43.855Z,101494.81
2023-05-08T17:51:14.185Z,101489.32
2023-05-08T17:53:42.835Z,101493.48
2023-05-08T17:56:11.980Z,101500.05
2023-05-08T17:58:40.783Z,101500.41
2023-05-08T18:01:09.401Z,101506.95
2023-05-08T18:03:38.227Z,101510.06
2023-05-08T18:06:08.263Z,101516.27
2023-05-08T18:08:37.221Z,101513.03
2023-05-08T18:11:06.290Z,101523.50
2023-05-08T18:13:35.251Z,101520.59
2023-05-08T18:16:04.062Z,101519.41
2023-05-08T18:18:33.192Z,101516.14
2023-05-08T18:21:02.287Z,101527.83
2023-05-08T18:23:31.527Z,101524.41
2023-05-08T18:26:00.567Z,101533.20
2023-05-08T18:28:29.120Z,101527.05
2023-05-08T18:30:57.836Z,101527.41
2023-05-08T18:33:26.628Z,101530.52
2023-05-08T18:35:55.644Z,101521.11
2023-05-08T18:38:25.320Z,101526.28
2023-05-08T18:40:55.057Z,101531.28
2023-05-08T18:43:23.889Z,101533.88
2023-05-08T18:45:52.533Z,101529.77
2023-05-08T18:48:22.082Z,101535.44
2023-05-08T18:50:51.333Z,101538.55
2023-05-08T18:53:20.358Z,101533.41
2023-05-08T18:55:48.998Z,101534.46
2023-05-08T18:58:17.626Z,101545.25
2023-05-08T19:00:46.518Z,101537.19
2023-05-08T19:03:18.057Z,101548.53
2023-05-08T19:05:47.106Z,101545.77
2023-05-08T19:08:15.989Z,101546.13
2023-05-08T19:10:44.796Z,101541.33
2023-05-08T19:13:13.756Z,101543.56
2023-05-08T19:15:42.668Z,101545.97
2023-05-08T19:18:12.711Z,101549.58
2023-05-08T19:20:41.346Z,101543.25
2023-05-08T19:23:10.076Z,101543.26
2023-05-08T19:25:38.962Z,101543.09
2023-05-08T19:28:07.646Z,101535.04
2023-05-08T19:30:36.197Z,101542.08
2023-05-08T19:33:05.624Z,101546.70
2023-05-08T19:35:36.487Z,101544.82
2023-05-08T19:38:04.958Z,101545.51
2023-05-08T19:40:44.515Z,101542.09
2023-05-08T19:43:06.190Z,101549.30
2023-05-08T19:45:35.478Z,101545.54
2023-05-08T19:48:10.482Z,101544.52
2023-05-08T19:50:35.779Z,101543.14
2023-05-08T19:53:04.329Z,101547.95
2023-05-08T19:55:33.660Z,101554.47
2023-05-08T19:58:03.311Z,101546.77
2023-05-08T20:00:32.371Z,101549.81
2023-05-08T20:03:01.546Z,101547.08
2023-05-08T20:05:31.422Z,101542.45
2023-05-08T20:07:59.963Z,101550.69
2023-05-08T20:10:28.829Z,101550.52
2023-05-08T20:12:59.078Z,101551.88
2023-05-08T20:15:27.727Z,101549.83
2023-05-08T20:17:59.257Z,101548.63
2023-05-08T20:20:31.687Z,101551.55
2023-05-08T20:23:01.343Z,101549.31
2023-05-08T20:25:30.149Z,101540.23
2023-05-08T20:27:59.793Z,101542.80
2023-05-08T20:30:28.474Z,101541.09
2023-05-08T20:32:59.322Z,101534.92
2023-05-08T20:35:28.191Z,101544.00
2023-05-08T20:37:56.895Z,101547.59
2023-05-08T20:40:26.332Z,101552.73
2023-05-08T20:42:54.856Z,101545.02
2023-05-08T20:45:23.429Z,101547.75
2023-05-08T20:47:52.537Z,101535.42
2023-05-08T20:50:22.047Z,101541.08
2023-05-08T20:52:51.402Z,101543.81
2023-05-08T20:55:20.856Z,101543.46
2023-05-08T20:57:49.420Z,101545.52
2023-05-08T21:00:19.439Z,101540.38
2023-05-08T21:02:48.264Z,101540.55
2023-05-08T21:05:18.669Z,101546.38
2023-05-08T21:07:47.159Z,101546.55
2023-05-08T21:10:16.345Z,101543.46
2023-05-08T21:12:45.363Z,101546.72
2023-05-08T21:15:15.461Z,101548.90
2023-05-08T21:17:44.653Z,101541.87
2023-05-08T21:20:14.847Z,101548.72
2023-05-08T21:22:45.326Z,101549.56
2023-05-08T21:25:17.869Z,101551.28
2023-05-08T21:27:46.522Z,101548.54
2023-05-08T21:30:16.456Z,101546.66
2023-05-08T21:32:46.196Z,101551.10
2023-05-08T21:35:15.476Z,101550.06
2023-05-08T21:37:45.077Z,101552.63
2023-05-08T21:40:14.747Z,101555.37
2023-05-08T21:42:43.213Z,101547.28
2023-05-08T21:45:12.364Z,101551.73
2023-05-08T21:47:41.849Z,101552.92
2023-05-08T21:50:11.569Z,101554.28
2023-05-08T21:52:41.349Z,101550.67
2023-05-08T21:55:10.506Z,101547.91
2023-05-08T21:57:39.990Z,101552.53
2023-05-08T22:00:11.453Z,101548.92
2023-05-08T22:02:43.167Z,101543.96
2023-05-08T22:05:13.073Z,101544.64
2023-05-08T22:07:43.399Z,101540.35
2023-05-08T22:10:15.499Z,101539.49
2023-05-08T22:12:44.102Z,101542.58
2023-05-08T22:15:22.050Z,101542.23
2023-05-08T22:17:43.512Z,101539.48
2023-05-08T22:20:14.505Z,101536.40
2023-05-08T22:22:43.418Z,101532.45
2023-05-08T22:25:12.282Z,101532.95
2023-05-08T22:27:41.116Z,101538.24
2023-05-08T22:30:11.132Z,101531.70
2023-05-08T22:32:40.343Z,101533.92
2023-05-08T22:35:09.785Z,101533.91
2023-05-08T22:37:38.561Z,101536.97
2023-05-08T22:40:09.035Z,101532.87
2023-05-08T22:42:38.815Z,101539.20
2023-05-08T22:45:09.304Z,101540.73
2023-05-08T22:47:39.142Z,101536.28
2023-05-08T22:50:13.277Z,101537.47
2023-05-08T22:52:42.003Z,101541.92
2023-05-08T22:55:10.687Z,101540.36
2023-05-08T22:57:39.320Z,101538.83
2023-05-08T23:00:10.164Z,101539.34
2023-05-08T23:02:39.526Z,101536.95
2023-05-08T23:05:09.631Z,101528.58
2023-05-08T23:07:38.588Z,101527.89
2023-05-08T23:10:08.576Z,101528.39
2023-05-08T23:12:38.780Z,101525.50
2023-05-08T23:15:09.130Z,101535.42
2023-05-08T23:17:38.125Z,101533.36
2023-05-08T23:20:08.509Z,101530.95
2023-05-08T23:22:37.815Z,101525.98
2023-05-08T23:25:12.110Z,101542.22
2023-05-08T23:27:41.164Z,101535.03
2023-05-08T23:30:13.089Z,101537.94
2023-05-08T23:32:42.215Z,101534.50
2023-05-08T23:35:11.428Z,101528.34
2023-05-08T23:37:40.489Z,101534.83
2023-05-08T23:40:10.946Z,101540.81
2023-05-08T23:42:39.672Z,101538.41
2023-05-08T23:45:11.955Z,101535.48
2023-05-08T23:47:41.043Z,101530.34
2023-05-08T23:50:12.678Z,101534.79
2023-05-08T23:52:41.969Z,101530.84
2023-05-08T23:55:11.201Z,101532.70
2023-05-08T23:57:39.929Z,101532.00
